sensor_id;sensor_type;location;lat;lon;timestamp;temperature;humidity
8953;DHT22;4511;50.890;8.054;2023-02-02T00:00:27;3.50;99.90
8953;DHT22;4511;50.890;8.054;2023-02-02T00:02:54;3.50;99.90
8953;DHT22;4511;50.890;8.054;2023-02-02T00:05:21;3.60;99.90
8953;DHT22;4511;50.890;8.054;2023-02-02T00:07:47;3.50;99.90
8953;DHT22;4511;50.890;8.054;2023-02-02T00:10:16;3.50;99.90
8953;DHT22;4511;50.890;8.054;2023-02-02T00:12:42;3.60;99.90
8953;DHT22;4511;50.890;8.054;2023-02-02T00:15:09;3.60;99.90
8953;DHT22;4511;50.890;8.054;2023-02-02T00:17:37;3.60;99.90
8953;DHT22;4511;50.890;8.054;2023-02-02T00:20:04;3.60;99.90
8953;DHT22;4511;50.890;8.054;2023-02-02T00:22:31;3.50;99.90
8953;DHT22;4511;50.890;8.054;2023-02-02T00:24:58;3.50;99.90
8953;DHT22;4511;50.890;8.054;2023-02-02T00:27:24;3.50;99.90
8953;DHT22;4511;50.890;8.054;2023-02-02T00:29:51;3.50;99.90
8953;DHT22;4511;50.890;8.054;2023-02-02T00:32:18;3.50;99.90
8953;DHT22;4511;50.890;8.054;2023-02-02T00:34:46;3.50;99.90
8953;DHT22;4511;50.890;8.054;2023-02-02T00:37:13;3.50;99.90
8953;DHT22;4511;50.890;8.054;2023-02-02T00:39:39;3.50;99.90
8953;DHT22;4511;50.890;8.054;2023-02-02T00:42:07;3.50;99.90
8953;DHT22;4511;50.890;8.054;2023-02-02T00:44:34;3.50;99.90
8953;DHT22;4511;50.890;8.054;2023-02-02T00:47:18;3.50;99.90
8953;DHT22;4511;50.890;8.054;2023-02-02T00:49:45;3.60;99.90
8953;DHT22;4511;50.890;8.054;2023-02-02T00:52:12;3.50;99.90
8953;DHT22;4511;50.890;8.054;2023-02-02T00:54:39;3.60;99.90
8953;DHT22;4511;50.890;8.054;2023-02-02T00:57:06;3.50;99.90
8953;DHT22;4511;50.890;8.054;2023-02-02T00:59:32;3.50;99.90
8953;DHT22;4511;50.890;8.054;2023-02-02T01:01:59;3.60;99.90
8953;DHT22;4511;50.890;8.054;2023-02-02T01:04:26;3.60;99.90
8953;DHT22;4511;50.890;8.054;2023-02-02T01:06:52;3.60;99.90
8953;DHT22;4511;50.890;8.054;2023-02-02T01:09:20;3.60;99.90
8953;DHT22;4511;50.890;8.054;2023-02-02T01:11:47;3.50;99.90
8953;DHT22;4511;50.890;8.054;2023-02-02T01:14:14;3.60;99.90
8953;DHT22;4511;50.890;8.054;2023-02-02T01:16:40;3.60;99.90
8953;DHT22;4511;50.890;8.054;2023-02-02T01:19:07;3.60;99.90
8953;DHT22;4511;50.890;8.054;2023-02-02T01:21:33;3.60;99.90
8953;DHT22;4511;50.890;8.054;2023-02-02T01:24:00;3.70;99.90
8953;DHT22;4511;50.890;8.054;2023-02-02T01:26:28;3.70;99.90
8953;DHT22;4511;50.890;8.054;2023-02-02T01:28:54;3.60;99.90
8953;DHT22;4511;50.890;8.054;2023-02-02T01:31:21;3.60;99.90
8953;DHT22;4511;50.890;8.054;2023-02-02T01:33:48;3.60;99.90
8953;DHT22;4511;50.890;8.054;2023-02-02T01:36:15;3.60;99.90
8953;DHT22;4511;50.890;8.054;2023-02-02T01:38:42;3.70;99.90
8953;DHT22;4511;50.890;8.054;2023-02-02T01:41:10;3.60;99.90
8953;DHT22;4511;50.890;8.054;2023-02-02T01:46:30;3.50;99.90
8953;DHT22;4511;50.890;8.054;2023-02-02T01:49:01;3.50;99.90
8953;DHT22;4511;50.890;8.054;2023-02-02T01:51:32;3.50;99.90
8953;DHT22;4511;50.890;8.054;2023-02-02T01:54:00;3.50;99.90
8953;DHT22;4511;50.890;8.054;2023-02-02T01:56:29;3.50;99.90
8953;DHT22;4511;50.890;8.054;2023-02-02T01:58:56;3.50;99.90
8953;DHT22;4511;50.890;8.054;2023-02-02T02:01:23;3.50;99.90
8953;DHT22;4511;50.890;8.054;2023-02-02T02:03:51;3.50;99.90
8953;DHT22;4511;50.890;8.054;2023-02-02T02:06:18;3.50;99.90
8953;DHT22;4511;50.890;8.054;2023-02-02T02:08:46;3.60;99.90
8953;DHT22;4511;50.890;8.054;2023-02-02T02:11:16;3.60;99.90
8953;DHT22;4511;50.890;8.054;2023-02-02T02:13:43;3.60;99.90
8953;DHT22;4511;50.890;8.054;2023-02-02T02:16:28;3.70;99.90
8953;DHT22;4511;50.890;8.054;2023-02-02T02:19:00;3.70;99.90
8953;DHT22;4511;50.890;8.054;2023-02-02T02:21:33;3.70;99.90
8953;DHT22;4511;50.890;8.054;2023-02-02T02:32:56;3.80;99.90
8953;DHT22;4511;50.890;8.054;2023-02-02T02:35:27;3.90;99.90
8953;DHT22;4511;50.890;8.054;2023-02-02T02:37:57;3.90;99.90
8953;DHT22;4511;50.890;8.054;2023-02-02T02:40:28;3.90;99.90
8953;DHT22;4511;50.890;8.054;2023-02-02T02:42:56;3.90;99.90
8953;DHT22;4511;50.890;8.054;2023-02-02T02:45:25;3.90;99.90
8953;DHT22;4511;50.890;8.054;2023-02-02T02:47:51;3.90;99.90
8953;DHT22;4511;50.890;8.054;2023-02-02T02:50:20;4.00;99.90
8953;DHT22;4511;50.890;8.054;2023-02-02T02:52:46;4.00;99.90
8953;DHT22;4511;50.890;8.054;2023-02-02T02:55:14;4.00;99.90
8953;DHT22;4511;50.890;8.054;2023-02-02T02:57:45;4.00;99.90
8953;DHT22;4511;50.890;8.054;2023-02-02T03:00:17;4.00;99.90
8953;DHT22;4511;50.890;8.054;2023-02-02T03:02:46;4.10;99.90
8953;DHT22;4511;50.890;8.054;2023-02-02T03:05:17;4.10;99.90
8953;DHT22;4511;50.890;8.054;2023-02-02T03:07:52;4.10;99.90
8953;DHT22;4511;50.890;8.054;2023-02-02T03:10:21;4.10;99.90
8953;DHT22;4511;50.890;8.054;2023-02-02T03:12:50;4.10;99.90
8953;DHT22;4511;50.890;8.054;2023-02-02T03:15:17;4.10;99.90
8953;DHT22;4511;50.890;8.054;2023-02-02T03:17:44;4.10;99.90
8953;DHT22;4511;50.890;8.054;2023-02-02T03:20:12;4.10;99.90
8953;DHT22;4511;50.890;8.054;2023-02-02T03:22:38;4.10;99.90
8953;DHT22;4511;50.890;8.054;2023-02-02T03:25:06;4.10;99.90
8953;DHT22;4511;50.890;8.054;2023-02-02T03:27:36;4.20;99.90
8953;DHT22;4511;50.890;8.054;2023-02-02T03:30:02;4.20;99.90
8953;DHT22;4511;50.890;8.054;2023-02-02T03:32:29;4.10;99.90
8953;DHT22;4511;50.890;8.054;2023-02-02T03:34:56;4.20;99.90
8953;DHT22;4511;50.890;8.054;2023-02-02T03:37:22;4.20;99.90
8953;DHT22;4511;50.890;8.054;2023-02-02T03:39:49;4.20;99.90
8953;DHT22;4511;50.890;8.054;2023-02-02T03:42:17;4.20;99.90
8953;DHT22;4511;50.890;8.054;2023-02-02T03:44:43;4.20;99.90
8953;DHT22;4511;50.890;8.054;2023-02-02T03:47:10;4.10;99.90
8953;DHT22;4511;50.890;8.054;2023-02-02T03:49:37;4.10;99.90
8953;DHT22;4511;50.890;8.054;2023-02-02T03:52:03;4.20;99.90
8953;DHT22;4511;50.890;8.054;2023-02-02T03:54:30;4.20;99.90
8953;DHT22;4511;50.890;8.054;2023-02-02T03:56:56;4.20;99.90
8953;DHT22;4511;50.890;8.054;2023-02-02T03:59:24;4.20;99.90
8953;DHT22;4511;50.890;8.054;2023-02-02T04:01:51;4.20;99.90
8953;DHT22;4511;50.890;8.054;2023-02-02T04:04:17;4.20;99.90
8953;DHT22;4511;50.890;8.054;2023-02-02T04:06:44;4.20;99.90
8953;DHT22;4511;50.890;8.054;2023-02-02T04:09:10;4.30;99.90
8953;DHT22;4511;50.890;8.054;2023-02-02T04:11:37;4.40;99.90
8953;DHT22;4511;50.890;8.054;2023-02-02T04:14:04;4.40;99.90
8953;DHT22;4511;50.890;8.054;2023-02-02T04:16:32;4.40;99.90
8953;DHT22;4511;50.890;8.054;2023-02-02T04:19:01;4.50;99.90
8953;DHT22;4511;50.890;8.054;2023-02-02T04:21:28;4.50;99.90
8953;DHT22;4511;50.890;8.054;2023-02-02T04:23:55;4.60;99.90
8953;DHT22;4511;50.890;8.054;2023-02-02T04:26:21;4.60;99.90
8953;DHT22;4511;50.890;8.054;2023-02-02T04:28:49;4.60;99.90
8953;DHT22;4511;50.890;8.054;2023-02-02T04:31:16;4.60;99.90
8953;DHT22;4511;50.890;8.054;2023-02-02T04:33:44;4.60;99.90
8953;DHT22;4511;50.890;8.054;2023-02-02T04:36:10;4.70;99.90
8953;DHT22;4511;50.890;8.054;2023-02-02T04:38:37;4.70;99.90
8953;DHT22;4511;50.890;8.054;2023-02-02T04:41:07;4.70;99.90
8953;DHT22;4511;50.890;8.054;2023-02-02T04:43:34;4.70;99.90
8953;DHT22;4511;50.890;8.054;2023-02-02T04:46:01;4.80;99.90
8953;DHT22;4511;50.890;8.054;2023-02-02T04:48:27;4.80;99.90
8953;DHT22;4511;50.890;8.054;2023-02-02T04:50:58;4.80;99.90
8953;DHT22;4511;50.890;8.054;2023-02-02T04:53:25;4.90;99.90
8953;DHT22;4511;50.890;8.054;2023-02-02T04:55:52;5.00;99.90
8953;DHT22;4511;50.890;8.054;2023-02-02T04:58:18;5.00;99.90
8953;DHT22;4511;50.890;8.054;2023-02-02T05:00:45;5.00;99.90
8953;DHT22;4511;50.890;8.054;2023-02-02T05:03:12;5.10;99.90
8953;DHT22;4511;50.890;8.054;2023-02-02T05:05:38;5.10;99.90
8953;DHT22;4511;50.890;8.054;2023-02-02T05:08:06;5.20;99.90
8953;DHT22;4511;50.890;8.054;2023-02-02T05:10:38;5.20;99.90
8953;DHT22;4511;50.890;8.054;2023-02-02T05:13:04;5.20;99.90
8953;DHT22;4511;50.890;8.054;2023-02-02T05:15:31;5.20;99.90
8953;DHT22;4511;50.890;8.054;2023-02-02T05:17:58;5.20;99.90
8953;DHT22;4511;50.890;8.054;2023-02-02T05:20:24;5.20;99.90
8953;DHT22;4511;50.890;8.054;2023-02-02T05:22:51;5.30;99.90
8953;DHT22;4511;50.890;8.054;2023-02-02T05:25:19;5.30;99.90
8953;DHT22;4511;50.890;8.054;2023-02-02T05:27:45;5.30;99.90
8953;DHT22;4511;50.890;8.054;2023-02-02T05:30:12;5.30;99.90
8953;DHT22;4511;50.890;8.054;2023-02-02T05:32:39;5.30;99.90
8953;DHT22;4511;50.890;8.054;2023-02-02T05:35:06;5.30;99.90
8953;DHT22;4511;50.890;8.054;2023-02-02T05:37:33;5.30;99.90
8953;DHT22;4511;50.890;8.054;2023-02-02T05:39:59;5.30;99.90
8953;DHT22;4511;50.890;8.054;2023-02-02T05:42:27;5.30;99.90
8953;DHT22;4511;50.890;8.054;2023-02-02T05:44:54;5.30;99.90
8953;DHT22;4511;50.890;8.054;2023-02-02T05:47:20;5.30;99.90
8953;DHT22;4511;50.890;8.054;2023-02-02T05:49:48;5.30;99.90
8953;DHT22;4511;50.890;8.054;2023-02-02T05:52:15;5.40;99.90
8953;DHT22;4511;50.890;8.054;2023-02-02T05:54:43;5.30;99.90
8953;DHT22;4511;50.890;8.054;2023-02-02T05:57:09;5.30;99.90
8953;DHT22;4511;50.890;8.054;2023-02-02T05:59:37;5.40;99.90
8953;DHT22;4511;50.890;8.054;2023-02-02T06:02:03;5.50;99.90
8953;DHT22;4511;50.890;8.054;2023-02-02T06:04:30;5.50;99.90
8953;DHT22;4511;50.890;8.054;2023-02-02T06:06:57;5.50;99.90
8953;DHT22;4511;50.890;8.054;2023-02-02T06:09:23;5.50;99.90
8953;DHT22;4511;50.890;8.054;2023-02-02T06:11:50;5.50;99.90
8953;DHT22;4511;50.890;8.054;2023-02-02T06:14:16;5.50;99.90
8953;DHT22;4511;50.890;8.054;2023-02-02T06:16:44;5.50;99.90
8953;DHT22;4511;50.890;8.054;2023-02-02T06:19:11;5.40;99.90
8953;DHT22;4511;50.890;8.054;2023-02-02T06:21:37;5.50;99.90
8953;DHT22;4511;50.890;8.054;2023-02-02T06:24:04;5.40;99.90
8953;DHT22;4511;50.890;8.054;2023-02-02T06:26:31;5.50;99.90
8953;DHT22;4511;50.890;8.054;2023-02-02T06:28:58;5.50;99.90
8953;DHT22;4511;50.890;8.054;2023-02-02T06:31:24;5.40;99.90
8953;DHT22;4511;50.890;8.054;2023-02-02T06:33:53;5.50;99.90
8953;DHT22;4511;50.890;8.054;2023-02-02T06:36:20;5.50;99.90
8953;DHT22;4511;50.890;8.054;2023-02-02T06:38:47;5.50;99.90
8953;DHT22;4511;50.890;8.054;2023-02-02T06:41:14;5.50;99.90
8953;DHT22;4511;50.890;8.054;2023-02-02T06:43:40;5.50;99.90
8953;DHT22;4511;50.890;8.054;2023-02-02T06:46:07;5.50;99.90
8953;DHT22;4511;50.890;8.054;2023-02-02T06:48:34;5.50;99.90
8953;DHT22;4511;50.890;8.054;2023-02-02T06:51:02;5.50;99.90
8953;DHT22;4511;50.890;8.054;2023-02-02T06:53:29;5.50;99.90
8953;DHT22;4511;50.890;8.054;2023-02-02T06:55:57;5.50;99.90
8953;DHT22;4511;50.890;8.054;2023-02-02T06:58:24;5.50;99.90
8953;DHT22;4511;50.890;8.054;2023-02-02T07:00:51;5.50;99.90
8953;DHT22;4511;50.890;8.054;2023-02-02T07:03:18;5.50;99.90
8953;DHT22;4511;50.890;8.054;2023-02-02T07:05:45;5.50;99.90
8953;DHT22;4511;50.890;8.054;2023-02-02T07:08:13;5.50;99.90
8953;DHT22;4511;50.890;8.054;2023-02-02T07:10:40;5.50;99.90
8953;DHT22;4511;50.890;8.054;2023-02-02T07:13:08;5.60;99.90
8953;DHT22;4511;50.890;8.054;2023-02-02T07:15:36;5.50;99.90
8953;DHT22;4511;50.890;8.054;2023-02-02T07:18:03;5.50;99.90
8953;DHT22;4511;50.890;8.054;2023-02-02T07:20:30;5.50;99.90
8953;DHT22;4511;50.890;8.054;2023-02-02T07:22:56;5.50;99.90
8953;DHT22;4511;50.890;8.054;2023-02-02T07:25:24;5.50;99.90
8953;DHT22;4511;50.890;8.054;2023-02-02T07:27:51;5.50;99.90
8953;DHT22;4511;50.890;8.054;2023-02-02T07:30:18;5.50;99.90
8953;DHT22;4511;50.890;8.054;2023-02-02T07:32:45;5.50;99.90
8953;DHT22;4511;50.890;8.054;2023-02-02T07:35:12;5.50;99.90
8953;DHT22;4511;50.890;8.054;2023-02-02T07:37:38;5.50;99.90
8953;DHT22;4511;50.890;8.054;2023-02-02T07:40:05;5.50;99.90
8953;DHT22;4511;50.890;8.054;2023-02-02T07:42:34;5.50;99.90
8953;DHT22;4511;50.890;8.054;2023-02-02T07:45:01;5.50;99.90
8953;DHT22;4511;50.890;8.054;2023-02-02T07:47:27;5.50;99.90
8953;DHT22;4511;50.890;8.054;2023-02-02T07:49:54;5.50;99.90
8953;DHT22;4511;50.890;8.054;2023-02-02T07:52:20;5.50;99.90
8953;DHT22;4511;50.890;8.054;2023-02-02T07:54:47;5.50;99.90
8953;DHT22;4511;50.890;8.054;2023-02-02T07:57:15;5.60;99.90
8953;DHT22;4511;50.890;8.054;2023-02-02T07:59:43;5.60;99.90
8953;DHT22;4511;50.890;8.054;2023-02-02T08:02:09;5.60;99.90
8953;DHT22;4511;50.890;8.054;2023-02-02T08:04:36;5.60;99.90
8953;DHT22;4511;50.890;8.054;2023-02-02T08:07:03;5.60;99.90
8953;DHT22;4511;50.890;8.054;2023-02-02T08:09:29;5.60;99.90
8953;DHT22;4511;50.890;8.054;2023-02-02T08:11:57;5.60;99.90
8953;DHT22;4511;50.890;8.054;2023-02-02T08:14:26;5.60;99.90
8953;DHT22;4511;50.890;8.054;2023-02-02T08:16:54;5.60;99.90
8953;DHT22;4511;50.890;8.054;2023-02-02T08:19:20;5.60;99.90
8953;DHT22;4511;50.890;8.054;2023-02-02T08:21:47;5.60;99.90
8953;DHT22;4511;50.890;8.054;2023-02-02T08:24:13;5.60;99.90
8953;DHT22;4511;50.890;8.054;2023-02-02T08:26:40;5.60;99.90
8953;DHT22;4511;50.890;8.054;2023-02-02T08:29:07;5.60;99.90
8953;DHT22;4511;50.890;8.054;2023-02-02T08:31:35;5.60;99.90
8953;DHT22;4511;50.890;8.054;2023-02-02T08:34:03;5.60;99.90
8953;DHT22;4511;50.890;8.054;2023-02-02T08:36:30;5.60;99.90
8953;DHT22;4511;50.890;8.054;2023-02-02T08:38:59;5.60;99.90
8953;DHT22;4511;50.890;8.054;2023-02-02T08:41:26;5.70;99.90
8953;DHT22;4511;50.890;8.054;2023-02-02T08:43:53;5.70;99.90
8953;DHT22;4511;50.890;8.054;2023-02-02T08:46:20;5.70;99.90
8953;DHT22;4511;50.890;8.054;2023-02-02T08:48:47;5.70;99.90
8953;DHT22;4511;50.890;8.054;2023-02-02T08:51:16;5.70;99.90
8953;DHT22;4511;50.890;8.054;2023-02-02T08:53:43;5.70;99.90
8953;DHT22;4511;50.890;8.054;2023-02-02T08:56:11;5.70;99.90
8953;DHT22;4511;50.890;8.054;2023-02-02T08:58:38;5.80;99.90
8953;DHT22;4511;50.890;8.054;2023-02-02T09:01:05;5.70;99.90
8953;DHT22;4511;50.890;8.054;2023-02-02T09:03:32;5.80;99.90
8953;DHT22;4511;50.890;8.054;2023-02-02T09:06:02;5.80;99.90
8953;DHT22;4511;50.890;8.054;2023-02-02T09:08:30;5.80;99.90
8953;DHT22;4511;50.890;8.054;2023-02-02T09:11:01;5.80;99.90
8953;DHT22;4511;50.890;8.054;2023-02-02T09:13:28;5.80;99.90
8953;DHT22;4511;50.890;8.054;2023-02-02T09:15:57;5.80;99.90
8953;DHT22;4511;50.890;8.054;2023-02-02T09:18:24;5.80;99.90
8953;DHT22;4511;50.890;8.054;2023-02-02T09:20:50;5.80;99.90
8953;DHT22;4511;50.890;8.054;2023-02-02T09:23:17;5.80;99.90
8953;DHT22;4511;50.890;8.054;2023-02-02T09:25:45;5.80;99.90
8953;DHT22;4511;50.890;8.054;2023-02-02T09:28:12;5.90;99.90
8953;DHT22;4511;50.890;8.054;2023-02-02T09:30:38;5.80;99.90
8953;DHT22;4511;50.890;8.054;2023-02-02T09:33:05;5.80;99.90
8953;DHT22;4511;50.890;8.054;2023-02-02T09:35:32;5.90;99.90
8953;DHT22;4511;50.890;8.054;2023-02-02T09:37:58;5.80;99.90
8953;DHT22;4511;50.890;8.054;2023-02-02T09:40:25;5.80;99.90
8953;DHT22;4511;50.890;8.054;2023-02-02T09:42:59;5.80;99.90
8953;DHT22;4511;50.890;8.054;2023-02-02T09:45:29;5.80;99.90
8953;DHT22;4511;50.890;8.054;2023-02-02T09:47:59;5.80;99.90
8953;DHT22;4511;50.890;8.054;2023-02-02T09:53:24;5.80;99.90
8953;DHT22;4511;50.890;8.054;2023-02-02T09:55:53;5.90;99.90
8953;DHT22;4511;50.890;8.054;2023-02-02T09:58:23;5.90;99.90
8953;DHT22;4511;50.890;8.054;2023-02-02T10:00:52;5.90;99.90
8953;DHT22;4511;50.890;8.054;2023-02-02T10:03:20;5.90;99.90
8953;DHT22;4511;50.890;8.054;2023-02-02T10:05:52;5.90;99.90
8953;DHT22;4511;50.890;8.054;2023-02-02T10:08:21;5.90;99.90
8953;DHT22;4511;50.890;8.054;2023-02-02T10:10:49;5.90;99.90
8953;DHT22;4511;50.890;8.054;2023-02-02T10:13:17;5.90;99.90
8953;DHT22;4511;50.890;8.054;2023-02-02T10:15:49;5.90;99.90
8953;DHT22;4511;50.890;8.054;2023-02-02T10:18:18;5.90;99.90
8953;DHT22;4511;50.890;8.054;2023-02-02T10:20:46;5.90;99.90
8953;DHT22;4511;50.890;8.054;2023-02-02T10:23:17;5.90;99.90
8953;DHT22;4511;50.890;8.054;2023-02-02T10:25:45;5.90;99.90
8953;DHT22;4511;50.890;8.054;2023-02-02T10:28:16;6.00;99.90
8953;DHT22;4511;50.890;8.054;2023-02-02T10:30:44;6.00;99.90
8953;DHT22;4511;50.890;8.054;2023-02-02T10:33:14;6.00;99.90
8953;DHT22;4511;50.890;8.054;2023-02-02T10:35:44;6.00;99.90
8953;DHT22;4511;50.890;8.054;2023-02-02T10:38:15;6.00;99.90
8953;DHT22;4511;50.890;8.054;2023-02-02T10:40:47;6.00;99.90
8953;DHT22;4511;50.890;8.054;2023-02-02T10:43:24;6.00;99.90
8953;DHT22;4511;50.890;8.054;2023-02-02T10:46:13;6.10;99.90
8953;DHT22;4511;50.890;8.054;2023-02-02T10:48:43;6.10;99.90
8953;DHT22;4511;50.890;8.054;2023-02-02T10:51:13;6.10;99.90
8953;DHT22;4511;50.890;8.054;2023-02-02T10:53:43;6.10;99.90
8953;DHT22;4511;50.890;8.054;2023-02-02T10:56:12;6.10;99.90
8953;DHT22;4511;50.890;8.054;2023-02-02T10:58:39;6.10;99.90
8953;DHT22;4511;50.890;8.054;2023-02-02T11:01:09;6.20;99.90
8953;DHT22;4511;50.890;8.054;2023-02-02T11:03:36;6.10;99.90
8953;DHT22;4511;50.890;8.054;2023-02-02T11:06:06;6.20;99.90
8953;DHT22;4511;50.890;8.054;2023-02-02T11:08:51;6.20;99.90
8953;DHT22;4511;50.890;8.054;2023-02-02T11:11:21;6.20;99.90
8953;DHT22;4511;50.890;8.054;2023-02-02T11:13:49;6.20;99.90
8953;DHT22;4511;50.890;8.054;2023-02-02T11:16:18;6.20;99.90
8953;DHT22;4511;50.890;8.054;2023-02-02T11:18:45;6.30;99.90
8953;DHT22;4511;50.890;8.054;2023-02-02T11:21:16;6.30;99.90
8953;DHT22;4511;50.890;8.054;2023-02-02T11:23:49;6.30;99.90
8953;DHT22;4511;50.890;8.054;2023-02-02T11:26:16;6.30;99.90
8953;DHT22;4511;50.890;8.054;2023-02-02T11:28:42;6.30;99.90
8953;DHT22;4511;50.890;8.054;2023-02-02T11:31:09;6.30;99.90
8953;DHT22;4511;50.890;8.054;2023-02-02T11:33:37;6.30;99.90
8953;DHT22;4511;50.890;8.054;2023-02-02T11:36:04;6.30;99.90
8953;DHT22;4511;50.890;8.054;2023-02-02T11:38:32;6.20;99.90
8953;DHT22;4511;50.890;8.054;2023-02-02T11:40:59;6.20;99.90
8953;DHT22;4511;50.890;8.054;2023-02-02T11:43:28;6.20;99.90
8953;DHT22;4511;50.890;8.054;2023-02-02T11:45:57;6.20;99.90
8953;DHT22;4511;50.890;8.054;2023-02-02T11:48:26;6.20;99.90
8953;DHT22;4511;50.890;8.054;2023-02-02T11:50:53;6.30;99.90
8953;DHT22;4511;50.890;8.054;2023-02-02T11:53:21;6.30;99.90
8953;DHT22;4511;50.890;8.054;2023-02-02T11:55:49;6.20;99.90
8953;DHT22;4511;50.890;8.054;2023-02-02T11:58:17;6.20;99.90
8953;DHT22;4511;50.890;8.054;2023-02-02T12:00:47;6.20;99.90
8953;DHT22;4511;50.890;8.054;2023-02-02T12:03:21;6.30;99.90
8953;DHT22;4511;50.890;8.054;2023-02-02T12:05:49;6.30;99.90
8953;DHT22;4511;50.890;8.054;2023-02-02T12:08:15;6.30;99.90
8953;DHT22;4511;50.890;8.054;2023-02-02T12:10:43;6.30;99.90
8953;DHT22;4511;50.890;8.054;2023-02-02T12:13:15;6.30;99.90
8953;DHT22;4511;50.890;8.054;2023-02-02T12:15:46;6.30;99.90
8953;DHT22;4511;50.890;8.054;2023-02-02T12:18:23;6.30;99.90
8953;DHT22;4511;50.890;8.054;2023-02-02T12:20:52;6.30;99.90
8953;DHT22;4511;50.890;8.054;2023-02-02T12:23:29;6.30;99.90
8953;DHT22;4511;50.890;8.054;2023-02-02T12:26:04;6.30;99.90
8953;DHT22;4511;50.890;8.054;2023-02-02T12:28:41;6.30;99.90
8953;DHT22;4511;50.890;8.054;2023-02-02T12:31:12;6.20;99.90
8953;DHT22;4511;50.890;8.054;2023-02-02T12:33:44;6.20;99.90
8953;DHT22;4511;50.890;8.054;2023-02-02T12:36:17;6.20;99.90
8953;DHT22;4511;50.890;8.054;2023-02-02T12:39:03;6.20;99.90
8953;DHT22;4511;50.890;8.054;2023-02-02T12:41:35;6.20;99.90
8953;DHT22;4511;50.890;8.054;2023-02-02T12:44:09;6.20;99.90
8953;DHT22;4511;50.890;8.054;2023-02-02T12:46:42;6.20;99.90
8953;DHT22;4511;50.890;8.054;2023-02-02T12:51:56;6.30;99.90
8953;DHT22;4511;50.890;8.054;2023-02-02T12:54:46;6.20;99.90
8953;DHT22;4511;50.890;8.054;2023-02-02T12:57:17;6.20;99.90
8953;DHT22;4511;50.890;8.054;2023-02-02T12:59:52;6.20;99.90
8953;DHT22;4511;50.890;8.054;2023-02-02T13:02:24;6.20;99.90
8953;DHT22;4511;50.890;8.054;2023-02-02T13:04:57;6.20;99.90
8953;DHT22;4511;50.890;8.054;2023-02-02T13:07:30;6.20;99.90
8953;DHT22;4511;50.890;8.054;2023-02-02T13:10:00;6.20;99.90
8953;DHT22;4511;50.890;8.054;2023-02-02T13:12:28;6.30;99.90
8953;DHT22;4511;50.890;8.054;2023-02-02T13:14:59;6.20;99.90
8953;DHT22;4511;50.890;8.054;2023-02-02T13:17:27;6.20;99.90
8953;DHT22;4511;50.890;8.054;2023-02-02T13:19:56;6.30;99.90
8953;DHT22;4511;50.890;8.054;2023-02-02T13:22:24;6.20;99.90
8953;DHT22;4511;50.890;8.054;2023-02-02T13:24:52;6.30;99.90
8953;DHT22;4511;50.890;8.054;2023-02-02T13:27:19;6.20;99.90
8953;DHT22;4511;50.890;8.054;2023-02-02T13:29:47;6.20;99.90
8953;DHT22;4511;50.890;8.054;2023-02-02T13:32:18;6.20;99.90
8953;DHT22;4511;50.890;8.054;2023-02-02T13:34:48;6.20;99.90
8953;DHT22;4511;50.890;8.054;2023-02-02T13:37:16;6.30;99.90
8953;DHT22;4511;50.890;8.054;2023-02-02T13:39:44;6.20;99.90
8953;DHT22;4511;50.890;8.054;2023-02-02T13:42:15;6.20;99.90
8953;DHT22;4511;50.890;8.054;2023-02-02T13:44:48;6.30;99.90
8953;DHT22;4511;50.890;8.054;2023-02-02T13:47:17;6.20;99.90
8953;DHT22;4511;50.890;8.054;2023-02-02T13:49:48;6.30;99.90
8953;DHT22;4511;50.890;8.054;2023-02-02T13:52:23;6.20;99.90
8953;DHT22;4511;50.890;8.054;2023-02-02T13:57:49;6.20;99.90
8953;DHT22;4511;50.890;8.054;2023-02-02T14:00:18;6.30;99.90
8953;DHT22;4511;50.890;8.054;2023-02-02T14:02:46;6.30;99.90
8953;DHT22;4511;50.890;8.054;2023-02-02T14:05:21;6.30;99.90
8953;DHT22;4511;50.890;8.054;2023-02-02T14:07:53;6.30;99.90
8953;DHT22;4511;50.890;8.054;2023-02-02T14:10:21;6.30;99.90
8953;DHT22;4511;50.890;8.054;2023-02-02T14:12:48;6.30;99.90
8953;DHT22;4511;50.890;8.054;2023-02-02T14:15:15;6.40;99.90
8953;DHT22;4511;50.890;8.054;2023-02-02T14:17:49;6.30;99.90
8953;DHT22;4511;50.890;8.054;2023-02-02T14:23:06;6.40;99.90
8953;DHT22;4511;50.890;8.054;2023-02-02T14:26:05;6.40;99.90
8953;DHT22;4511;50.890;8.054;2023-02-02T14:28:40;6.30;99.90
8953;DHT22;4511;50.890;8.054;2023-02-02T14:31:22;6.30;99.90
8953;DHT22;4511;50.890;8.054;2023-02-02T14:33:51;6.30;99.90
8953;DHT22;4511;50.890;8.054;2023-02-02T14:36:39;6.30;99.90
8953;DHT22;4511;50.890;8.054;2023-02-02T14:39:17;6.30;99.90
8953;DHT22;4511;50.890;8.054;2023-02-02T14:41:56;6.30;99.90
8953;DHT22;4511;50.890;8.054;2023-02-02T14:47:47;6.30;99.90
8953;DHT22;4511;50.890;8.054;2023-02-02T14:50:14;6.30;99.90
8953;DHT22;4511;50.890;8.054;2023-02-02T14:52:44;6.30;99.90
8953;DHT22;4511;50.890;8.054;2023-02-02T14:55:19;6.30;99.90
8953;DHT22;4511;50.890;8.054;2023-02-02T14:57:52;6.30;99.90
8953;DHT22;4511;50.890;8.054;2023-02-02T15:00:19;6.30;99.90
8953;DHT22;4511;50.890;8.054;2023-02-02T15:02:47;6.30;99.90
8953;DHT22;4511;50.890;8.054;2023-02-02T15:05:33;6.30;99.90
8953;DHT22;4511;50.890;8.054;2023-02-02T15:08:10;6.30;99.90
8953;DHT22;4511;50.890;8.054;2023-02-02T15:13:19;6.30;99.90
8953;DHT22;4511;50.890;8.054;2023-02-02T15:15:46;6.40;99.90
8953;DHT22;4511;50.890;8.054;2023-02-02T15:18:14;6.40;99.90
8953;DHT22;4511;50.890;8.054;2023-02-02T15:20:44;6.40;99.90
8953;DHT22;4511;50.890;8.054;2023-02-02T15:23:17;6.40;99.90
8953;DHT22;4511;50.890;8.054;2023-02-02T15:25:48;6.30;99.90
8953;DHT22;4511;50.890;8.054;2023-02-02T15:28:19;6.40;99.90
8953;DHT22;4511;50.890;8.054;2023-02-02T15:30:47;6.30;99.90
8953;DHT22;4511;50.890;8.054;2023-02-02T15:33:18;6.40;99.90
8953;DHT22;4511;50.890;8.054;2023-02-02T15:35:46;6.30;99.90
8953;DHT22;4511;50.890;8.054;2023-02-02T15:38:13;6.40;99.90
8953;DHT22;4511;50.890;8.054;2023-02-02T15:40:42;6.30;99.90
8953;DHT22;4511;50.890;8.054;2023-02-02T15:43:09;6.30;99.90
8953;DHT22;4511;50.890;8.054;2023-02-02T15:45:39;6.40;99.90
8953;DHT22;4511;50.890;8.054;2023-02-02T15:48:13;6.30;99.90
8953;DHT22;4511;50.890;8.054;2023-02-02T15:50:42;6.30;99.90
8953;DHT22;4511;50.890;8.054;2023-02-02T15:53:13;6.30;99.90
8953;DHT22;4511;50.890;8.054;2023-02-02T15:55:43;6.30;99.90
8953;DHT22;4511;50.890;8.054;2023-02-02T15:58:20;6.30;99.90
8953;DHT22;4511;50.890;8.054;2023-02-02T16:00:53;6.30;99.90
8953;DHT22;4511;50.890;8.054;2023-02-02T16:03:21;6.40;99.90
8953;DHT22;4511;50.890;8.054;2023-02-02T16:05:49;6.30;99.90
8953;DHT22;4511;50.890;8.054;2023-02-02T16:08:17;6.30;99.90
8953;DHT22;4511;50.890;8.054;2023-02-02T16:10:46;6.30;99.90
8953;DHT22;4511;50.890;8.054;2023-02-02T16:13:17;6.30;99.90
8953;DHT22;4511;50.890;8.054;2023-02-02T16:15:53;6.30;99.90
8953;DHT22;4511;50.890;8.054;2023-02-02T16:18:19;6.30;99.90
8953;DHT22;4511;50.890;8.054;2023-02-02T16:20:46;6.30;99.90
8953;DHT22;4511;50.890;8.054;2023-02-02T16:23:13;6.30;99.90
8953;DHT22;4511;50.890;8.054;2023-02-02T16:25:42;6.30;99.90
8953;DHT22;4511;50.890;8.054;2023-02-02T16:28:11;6.30;99.90
8953;DHT22;4511;50.890;8.054;2023-02-02T16:30:39;6.30;99.90
8953;DHT22;4511;50.890;8.054;2023-02-02T16:35:48;6.30;99.90
8953;DHT22;4511;50.890;8.054;2023-02-02T16:38:20;6.30;99.90
8953;DHT22;4511;50.890;8.054;2023-02-02T16:40:48;6.30;99.90
8953;DHT22;4511;50.890;8.054;2023-02-02T16:43:18;6.30;99.90
8953;DHT22;4511;50.890;8.054;2023-02-02T16:45:45;6.30;99.90
8953;DHT22;4511;50.890;8.054;2023-02-02T16:51:12;6.30;99.90
8953;DHT22;4511;50.890;8.054;2023-02-02T16:53:47;6.20;99.90
8953;DHT22;4511;50.890;8.054;2023-02-02T16:56:19;6.20;99.90
8953;DHT22;4511;50.890;8.054;2023-02-02T16:58:48;6.20;99.90
8953;DHT22;4511;50.890;8.054;2023-02-02T17:01:16;6.20;99.90